createdAt,value
2023-10-21T00:00:26.737Z,97314.73
2023-10-21T00:03:15.959Z,97316.71
2023-10-21T00:05:45.643Z,97316.66
2023-10-21T00:08:16.208Z,97328.18
2023-10-21T00:10:45.421Z,97329.98
2023-10-21T00:13:15.991Z,97330.17
2023-10-21T00:15:44.325Z,97333.63
2023-10-21T00:18:14.643Z,97343.34
2023-10-21T00:20:44.387Z,97348.23
2023-10-21T00:23:13.271Z,97345.59
2023-10-21T00:25:42.834Z,97343.77
2023-10-21T00:28:12.269Z,97342.86
2023-10-21T00:30:40.903Z,97358.73
2023-10-21T00:33:10.771Z,97359.05
2023-10-21T00:35:40.752Z,97355.73
2023-10-21T00:38:09.465Z,97362.23
2023-10-21T00:40:39.436Z,97365.34
2023-10-21T00:43:08.662Z,97358.31
2023-10-21T00:45:38.083Z,97359.04
2023-10-21T00:48:07.806Z,97361.27
2023-10-21T00:50:36.765Z,97357.80
2023-10-21T00:53:06.331Z,97355.80
2023-10-21T00:55:37.407Z,97360.27
2023-10-21T00:58:07.116Z,97366.84
2023-10-21T01:00:39.119Z,97375.75
2023-10-21T01:03:08.773Z,97367.60
2023-10-21T01:05:40.136Z,97369.73
2023-10-21T01:08:09.709Z,97370.08
2023-10-21T01:10:39.646Z,97370.44
2023-10-21T01:13:08.252Z,97363.43
2023-10-21T01:15:38.514Z,97372.16
2023-10-21T01:18:10.797Z,97365.30
2023-10-21T01:20:43.880Z,97356.91
2023-10-21T01:23:17.353Z,97348.22
2023-10-21T01:25:46.317Z,97349.36
2023-10-21T01:28:15.710Z,97345.17
2023-10-21T01:30:45.267Z,97347.67
2023-10-21T01:33:14.596Z,97342.33
2023-10-21T01:35:45.850Z,97344.98
2023-10-21T01:38:16.184Z,97343.71
2023-10-21T01:40:45.159Z,97352.27
2023-10-21T01:43:15.858Z,97353.87
2023-10-21T01:45:44.749Z,97356.27
2023-10-21T01:48:16.360Z,97354.77
2023-10-21T01:50:45.723Z,97350.41
2023-10-21T01:53:15.074Z,97353.05
2023-10-21T01:55:44.303Z,97351.92
2023-10-21T01:58:13.659Z,97348.30
2023-10-21T02:00:42.856Z,97348.09
2023-10-21T02:03:13.544Z,97342.02
2023-10-21T02:05:44.209Z,97348.59
2023-10-21T02:08:13.628Z,97341.60
2023-10-21T02:10:42.280Z,97331.87
2023-10-21T02:13:11.206Z,97330.85
2023-10-21T02:15:40.165Z,97322.57
2023-10-21T02:18:10.671Z,97316.96
2023-10-21T02:20:40.438Z,97319.67
2023-10-21T02:23:09.340Z,97318.62
2023-10-21T02:25:38.902Z,97325.27
2023-10-21T02:28:07.863Z,97322.70
2023-10-21T02:30:38.201Z,97320.77
2023-10-21T02:33:07.363Z,97327.66
2023-10-21T02:35:36.694Z,97326.02
2023-10-21T02:38:07.052Z,97331.05
2023-10-21T02:40:36.451Z,97329.33
2023-10-21T02:43:05.657Z,97327.93
2023-10-21T02:45:35.327Z,97334.14
2023-10-21T02:48:05.331Z,97332.10
2023-10-21T02:50:34.025Z,97328.13
2023-10-21T02:53:04.080Z,97328.68
2023-10-21T02:55:33.899Z,97324.82
2023-10-21T02:58:03.488Z,97318.70
2023-10-21T03:00:33.466Z,97324.27
2023-10-21T03:03:02.531Z,97326.90
2023-10-21T03:05:31.305Z,97338.52
2023-10-21T03:08:01.207Z,97342.00
2023-10-21T03:10:30.639Z,97344.23
2023-10-21T03:13:00.705Z,97354.23
2023-10-21T03:15:30.657Z,97353.34
2023-10-21T03:18:00.593Z,97345.94
2023-10-21T03:20:34.185Z,97349.20
2023-10-21T03:23:05.362Z,97349.79
2023-10-21T03:25:35.081Z,97344.52
2023-10-21T03:28:03.892Z,97342.25
2023-10-21T03:30:32.711Z,97340.44
2023-10-21T03:33:04.173Z,97345.96
2023-10-21T03:35:33.675Z,97361.55
2023-10-21T03:38:02.200Z,97366.29
2023-10-21T03:40:32.137Z,97366.61
2023-10-21T03:43:03.214Z,97363.09
2023-10-21T03:45:33.876Z,97371.19
2023-10-21T03:48:03.177Z,97380.56
2023-10-21T03:50:32.044Z,97384.77
2023-10-21T03:53:01.254Z,97392.90
2023-10-21T03:55:31.452Z,97389.39
2023-10-21T03:57:59.936Z,97391.39
2023-10-21T04:00:30.972Z,97396.16
2023-10-21T04:02:59.584Z,97391.91
2023-10-21T04:05:29.786Z,97386.65
2023-10-21T04:07:58.345Z,97381.88
2023-10-21T04:10:28.804Z,97373.23
2023-10-21T04:12:57.969Z,97360.31
2023-10-21T04:15:27.779Z,97358.20
2023-10-21T04:17:57.200Z,97358.22
2023-10-21T04:20:27.573Z,97354.23
2023-10-21T04:22:57.871Z,97346.79
2023-10-21T04:25:29.600Z,97351.75
2023-10-21T04:27:59.738Z,97349.54
2023-10-21T04:30:28.931Z,97355.75
2023-10-21T04:32:59.544Z,97358.08
2023-10-21T04:35:30.231Z,97365.78
2023-10-21T04:38:00.947Z,97367.42
2023-10-21T04:40:30.393Z,97373.36
2023-10-21T04:42:59.441Z,97375.03
2023-10-21T04:45:28.963Z,97365.45
2023-10-21T04:47:58.528Z,97358.88
2023-10-21T04:50:29.107Z,97362.98
2023-10-21T04:52:58.717Z,97379.79
2023-10-21T04:55:29.300Z,97381.05
2023-10-21T04:57:59.426Z,97379.49
2023-10-21T05:00:30.536Z,97361.33
2023-10-21T05:03:00.632Z,97356.86
2023-10-21T05:05:30.500Z,97351.31
2023-10-21T05:08:04.940Z,97354.48
2023-10-21T05:10:34.912Z,97355.62
2023-10-21T05:13:05.845Z,97357.05
2023-10-21T05:15:39.012Z,97367.23
2023-10-21T05:18:09.416Z,97373.59
2023-10-21T05:20:39.682Z,97375.00
2023-10-21T05:23:10.307Z,97375.54
2023-10-21T05:25:41.812Z,97380.80
2023-10-21T05:28:17.504Z,97385.46
2023-10-21T05:30:47.977Z,97390.70
2023-10-21T05:33:17.167Z,97394.04
2023-10-21T05:35:46.993Z,97393.98
2023-10-21T05:38:16.903Z,97383.50
2023-10-21T05:40:47.175Z,97386.06
2023-10-21T05:43:16.525Z,97390.10
2023-10-21T05:45:46.645Z,97395.71
2023-10-21T05:48:16.382Z,97411.11
2023-10-21T05:50:47.454Z,97412.38
2023-10-21T05:53:17.782Z,97421.80
2023-10-21T05:55:47.683Z,97428.86
2023-10-21T05:58:18.387Z,97441.41
2023-10-21T06:00:50.736Z,97444.73
2023-10-21T06:03:26.282Z,97448.92
2023-10-21T06:05:59.561Z,97459.44
2023-10-21T06:08:30.868Z,97465.07
2023-10-21T06:11:02.372Z,97472.23
2023-10-21T06:13:33.750Z,97470.80
2023-10-21T06:16:04.871Z,97475.23
2023-10-21T06:18:35.730Z,97481.60
2023-10-21T06:21:06.554Z,97481.48
2023-10-21T06:23:37.165Z,97481.59
2023-10-21T06:26:16.633Z,97480.08
2023-10-21T06:28:48.393Z,97480.16
2023-10-21T06:31:19.333Z,97477.05
2023-10-21T06:33:48.158Z,97474.42
2023-10-21T06:36:18.607Z,97471.27
2023-10-21T06:38:51.246Z,97469.88
2023-10-21T06:41:24.775Z,97477.61
2023-10-21T06:43:58.870Z,97482.92
2023-10-21T06:46:29.410Z,97485.49
2023-10-21T06:49:01.806Z,97481.59
2023-10-21T06:51:34.395Z,97483.19
2023-10-21T06:54:08.180Z,97482.11
2023-10-21T06:56:39.570Z,97477.55
2023-10-21T06:59:10.050Z,97476.05
2023-10-21T07:01:40.497Z,97485.13
2023-10-21T07:04:13.550Z,97481.66
2023-10-21T07:06:43.093Z,97490.02
2023-10-21T07:09:12.992Z,97486.83
2023-10-21T07:11:43.929Z,97484.02
2023-10-21T07:14:14.289Z,97482.94
2023-10-21T07:16:44.238Z,97479.13
2023-10-21T07:19:14.690Z,97473.15
2023-10-21T07:21:44.123Z,97471.95
2023-10-21T07:24:13.881Z,97467.67
2023-10-21T07:26:44.779Z,97475.83
2023-10-21T07:29:18.404Z,97478.70
2023-10-21T07:31:49.813Z,97473.95
2023-10-21T07:34:25.673Z,97472.29
2023-10-21T07:36:56.786Z,97484.28
2023-10-21T07:39:28.284Z,97484.23
2023-10-21T07:41:59.698Z,97484.19
2023-10-21T07:44:29.861Z,97487.68
2023-10-21T07:47:00.061Z,97482.83
2023-10-21T07:49:31.026Z,97480.48
2023-10-21T07:52:00.597Z,97482.62
2023-10-21T07:54:29.489Z,97494.73
2023-10-21T07:56:59.962Z,97492.80
2023-10-21T07:59:29.738Z,97493.86
2023-10-21T08:02:02.480Z,97503.48
2023-10-21T08:04:34.007Z,97503.84
2023-10-21T08:07:03.689Z,97506.95
2023-10-21T08:09:33.859Z,97514.54
2023-10-21T08:12:04.015Z,97523.09
2023-10-21T08:14:36.273Z,97527.02
2023-10-21T08:17:09.492Z,97536.60
2023-10-21T08:19:39.126Z,97540.64
2023-10-21T08:22:10.112Z,97536.16
2023-10-21T08:24:41.485Z,97535.63
2023-10-21T08:27:13.363Z,97528.71
2023-10-21T08:29:43.501Z,97520.61
2023-10-21T08:32:12.682Z,97515.55
2023-10-21T08:34:43.098Z,97507.69
2023-10-21T08:37:13.483Z,97507.39
2023-10-21T08:39:45.646Z,97494.02
2023-10-21T08:42:15.642Z,97507.27
2023-10-21T08:44:49.339Z,97522.77
2023-10-21T08:47:22.660Z,97531.20
2023-10-21T08:49:53.374Z,97541.88
2023-10-21T08:52:26.308Z,97544.98
2023-10-21T08:54:59.934Z,97551.48
2023-10-21T08:57:32.336Z,97544.90
2023-10-21T09:00:06.197Z,97541.58
2023-10-21T09:02:39.699Z,97537.54
2023-10-21T09:05:14.112Z,97541.67
2023-10-21T09:07:49.447Z,97542.31
2023-10-21T09:10:24.000Z,97545.52
2023-10-21T09:12:56.182Z,97550.91
2023-10-21T09:15:38.626Z,97561.42
2023-10-21T09:18:15.032Z,97562.13
2023-10-21T09:20:51.021Z,97556.52
2023-10-21T09:23:22.745Z,97561.45
2023-10-21T09:25:55.935Z,97559.31
2023-10-21T09:28:25.944Z,97560.23
2023-10-21T09:31:05.168Z,97562.98
2023-10-21T09:33:55.621Z,97568.96
2023-10-21T09:36:27.552Z,97570.24
2023-10-21T09:39:01.316Z,97569.80
2023-10-21T09:41:33.186Z,97585.58
2023-10-21T09:44:08.374Z,97587.59
2023-10-21T09:46:41.936Z,97595.95
2023-10-21T09:49:17.074Z,97596.27
2023-10-21T09:51:55.896Z,97599.69
2023-10-21T09:54:52.838Z,97605.52
2023-10-21T09:57:23.564Z,97604.56
2023-10-21T09:59:56.470Z,97598.77
2023-10-21T10:02:28.751Z,97595.51
2023-10-21T10:05:01.971Z,97599.58
2023-10-21T10:07:41.805Z,97604.80
2023-10-21T10:10:16.611Z,97595.82
2023-10-21T10:12:54.344Z,97600.49
2023-10-21T10:15:47.633Z,97606.88
2023-10-21T10:18:24.276Z,97603.52
2023-10-21T10:20:59.385Z,97598.56
2023-10-21T10:23:34.538Z,97599.80
2023-10-21T10:26:15.264Z,97590.20
2023-10-21T10:28:51.768Z,97590.60
2023-10-21T10:31:25.592Z,97584.60
2023-10-21T10:34:01.098Z,97576.17
2023-10-21T10:36:36.757Z,97568.73
2023-10-21T10:39:09.350Z,97562.02
2023-10-21T10:41:50.945Z,97569.65
2023-10-21T10:44:24.868Z,97563.87
2023-10-21T10:46:59.417Z,97550.51
2023-10-21T10:49:39.033Z,97541.42
2023-10-21T10:52:11.719Z,97535.88
2023-10-21T10:54:44.593Z,97538.27
2023-10-21T10:57:21.368Z,97539.80
2023-10-21T10:59:58.080Z,97528.18
2023-10-21T11:02:44.355Z,97540.45
2023-10-21T11:05:24.622Z,97537.21
2023-10-21T11:07:56.300Z,97529.77
2023-10-21T11:10:28.685Z,97538.58
2023-10-21T11:13:00.261Z,97538.96
2023-10-21T11:15:32.365Z,97525.48
2023-10-21T11:18:02.315Z,97516.03
2023-10-21T11:20:32.285Z,97511.02
2023-10-21T11:23:12.895Z,97513.48
2023-10-21T11:25:44.911Z,97518.23
2023-10-21T11:28:16.827Z,97512.75
2023-10-21T11:30:51.687Z,97500.29
2023-10-21T11:33:25.970Z,97501.19
2023-10-21T11:35:59.673Z,97490.04
2023-10-21T11:38:33.240Z,97487.17
2023-10-21T11:41:10.629Z,97487.73
2023-10-21T11:43:53.026Z,97484.64
2023-10-21T11:46:26.315Z,97486.20
2023-10-21T11:49:03.092Z,97482.71
2023-10-21T11:51:35.850Z,97478.91
2023-10-21T11:54:24.004Z,97478.25
2023-10-21T11:57:05.612Z,97480.51
2023-10-21T12:00:01.401Z,97481.45
2023-10-21T12:02:51.419Z,97489.52
2023-10-21T12:05:43.502Z,97484.96
2023-10-21T12:08:34.619Z,97481.35
2023-10-21T12:11:19.856Z,97482.98
2023-10-21T12:14:14.893Z,97479.42
2023-10-21T12:17:07.989Z,97483.11
2023-10-21T12:20:04.500Z,97486.42
2023-10-21T12:23:09.730Z,97478.54
2023-10-21T12:26:00.265Z,97473.99
2023-10-21T12:28:47.418Z,97479.52
2023-10-21T12:31:36.139Z,97468.35
2023-10-21T12:34:16.657Z,97478.20
2023-10-21T12:37:04.953Z,97486.77
2023-10-21T12:39:55.016Z,97470.83
2023-10-21T12:42:46.146Z,97472.15
2023-10-21T12:45:24.089Z,97470.27
2023-10-21T12:47:55.586Z,97468.45
2023-10-21T12:50:27.044Z,97473.98
2023-10-21T12:52:59.668Z,97479.45
2023-10-21T12:55:32.789Z,97482.30
2023-10-21T12:58:01.756Z,97477.67
2023-10-21T13:00:32.661Z,97481.90
2023-10-21T13:03:11.587Z,97486.55
2023-10-21T13:05:48.569Z,97480.94
2023-10-21T13:08:20.284Z,97471.13
2023-10-21T13:10:58.122Z,97468.68
2023-10-21T13:13:32.113Z,97469.14
2023-10-21T13:16:02.591Z,97476.51
2023-10-21T13:18:33.230Z,97481.27
2023-10-21T13:21:08.850Z,97479.17
2023-10-21T13:23:38.954Z,97484.69
2023-10-21T13:26:13.283Z,97476.14
2023-10-21T13:28:43.268Z,97481.73
2023-10-21T13:31:14.386Z,97488.02
2023-10-21T13:33:47.442Z,97491.85
2023-10-21T13:36:17.890Z,97494.65
2023-10-21T13:38:50.226Z,97491.04
2023-10-21T13:41:20.687Z,97501.30
2023-10-21T13:43:50.005Z,97503.20
2023-10-21T13:46:20.110Z,97508.23
2023-10-21T13:48:53.122Z,97504.66
2023-10-21T13:51:23.367Z,97501.34
2023-10-21T13:53:55.729Z,97503.45
2023-10-21T13:56:25.979Z,97499.66
2023-10-21T13:58:57.201Z,97501.24
2023-10-21T14:01:28.185Z,97506.97
2023-10-21T14:04:01.269Z,97517.52
2023-10-21T14:06:32.688Z,97521.13
2023-10-21T14:09:03.919Z,97522.17
2023-10-21T14:11:36.701Z,97521.31
2023-10-21T14:14:14.818Z,97512.79
2023-10-21T14:16:46.649Z,97505.48
2023-10-21T14:19:23.118Z,97511.84
2023-10-21T14:21:55.420Z,97528.05
2023-10-21T14:24:24.273Z,97525.61
2023-10-21T14:26:53.288Z,97526.84
2023-10-21T14:29:24.377Z,97532.16
2023-10-21T14:31:56.251Z,97537.32
2023-10-21T14:34:26.243Z,97541.59
2023-10-21T14:36:55.671Z,97541.56
2023-10-21T14:39:25.601Z,97542.33
2023-10-21T14:41:56.165Z,97542.63
2023-10-21T14:44:27.804Z,97550.16
2023-10-21T14:46:58.680Z,97550.45
2023-10-21T14:49:30.478Z,97551.80
2023-10-21T14:52:02.456Z,97545.73
2023-10-21T14:54:35.803Z,97552.84
2023-10-21T14:57:13.221Z,97560.08
2023-10-21T14:59:50.397Z,97565.54
2023-10-21T15:02:21.939Z,97567.23
2023-10-21T15:04:52.196Z,97569.74
2023-10-21T15:07:23.106Z,97569.06
2023-10-21T15:09:57.096Z,97570.35
2023-10-21T15:12:28.136Z,97570.89
2023-10-21T15:15:03.391Z,97570.31
2023-10-21T15:17:41.356Z,97573.05
2023-10-21T15:20:12.457Z,97578.37
2023-10-21T15:22:49.233Z,97588.38
2023-10-21T15:25:22.928Z,97589.73
2023-10-21T15:27:54.147Z,97591.14
2023-10-21T15:30:27.517Z,97602.06
2023-10-21T15:32:58.742Z,97606.57
2023-10-21T15:35:31.303Z,97604.05
2023-10-21T15:38:01.096Z,97614.50
2023-10-21T15:40:33.631Z,97612.18
2023-10-21T15:43:04.942Z,97624.21
2023-10-21T15:45:39.829Z,97636.60
2023-10-21T15:48:13.542Z,97642.39
2023-10-21T15:50:44.074Z,97655.14
2023-10-21T15:53:13.851Z,97654.01
2023-10-21T15:55:43.494Z,97657.90
2023-10-21T15:58:16.992Z,97667.50
2023-10-21T16:00:51.817Z,97676.52
2023-10-21T16:03:26.471Z,97680.75
2023-10-21T16:06:03.018Z,97685.63
2023-10-21T16:08:38.258Z,97687.45
2023-10-21T16:11:10.751Z,97690.23
2023-10-21T16:13:43.361Z,97690.19
2023-10-21T16:16:15.622Z,97691.16
2023-10-21T16:18:52.720Z,97686.54
2023-10-21T16:21:27.888Z,97685.24
2023-10-21T16:23:59.481Z,97690.72
2023-10-21T16:26:31.361Z,97691.70
2023-10-21T16:29:02.922Z,97687.88
2023-10-21T16:31:35.636Z,97693.25
2023-10-21T16:34:07.563Z,97702.55
2023-10-21T16:36:39.130Z,97704.31
2023-10-21T16:39:11.454Z,97701.83
2023-10-21T16:41:41.825Z,97702.72
2023-10-21T16:44:11.055Z,97708.54
2023-10-21T16:46:45.332Z,97705.42
2023-10-21T16:49:18.671Z,97711.06
2023-10-21T16:51:54.932Z,97720.23
2023-10-21T16:54:42.356Z,97727.64
2023-10-21T16:57:20.241Z,97739.23
2023-10-21T16:59:54.267Z,97744.23
2023-10-21T17:02:29.195Z,97747.33
2023-10-21T17:05:06.002Z,97748.20
2023-10-21T17:07:44.120Z,97748.75
2023-10-21T17:10:23.702Z,97758.52
2023-10-21T17:13:05.322Z,97770.17
2023-10-21T17:15:48.845Z,97772.75
2023-10-21T17:18:53.488Z,97794.27
2023-10-21T17:21:53.658Z,97815.02
2023-10-21T17:24:31.077Z,97811.35
2023-10-21T17:27:22.374Z,97811.98
2023-10-21T17:30:00.966Z,97789.31
2023-10-21T17:32:42.685Z,97788.98
2023-10-21T17:35:25.408Z,97808.97
2023-10-21T17:37:58.981Z,97816.89
2023-10-21T17:40:31.941Z,97826.29
2023-10-21T17:43:14.175Z,97845.12
2023-10-21T17:45:53.653Z,97866.04
2023-10-21T17:48:35.704Z,97875.98
2023-10-21T17:51:13.689Z,97883.64
2023-10-21T17:53:52.957Z,97885.76
2023-10-21T17:56:39.266Z,97903.45
2023-10-21T17:59:16.447Z,97911.17
2023-10-21T18:01:48.874Z,97897.72
2023-10-21T18:04:23.000Z,97900.98
2023-10-21T18:06:57.349Z,97903.00
2023-10-21T18:09:33.025Z,97896.86
2023-10-21T18:12:05.293Z,97886.27
2023-10-21T18:14:38.762Z,97869.39
2023-10-21T18:17:13.489Z,97872.65
2023-10-21T18:19:46.067Z,97883.91
2023-10-21T18:22:21.332Z,97892.79
2023-10-21T18:24:55.894Z,97884.64
2023-10-21T18:27:30.859Z,97872.50
2023-10-21T18:30:02.423Z,97851.38
2023-10-21T18:32:37.823Z,97844.73
2023-10-21T18:35:11.801Z,97844.61
2023-10-21T18:37:44.073Z,97840.30
2023-10-21T18:40:16.376Z,97838.95
2023-10-21T18:42:48.637Z,97841.06
2023-10-21T18:45:22.325Z,97845.94
2023-10-21T18:47:53.157Z,97845.13
2023-10-21T18:50:26.042Z,97849.42
2023-10-21T18:52:58.567Z,97851.54
2023-10-21T18:55:30.393Z,97859.55
2023-10-21T18:58:03.893Z,97862.20
2023-10-21T19:00:36.051Z,97856.90
2023-10-21T19:03:09.265Z,97862.17
2023-10-21T19:05:39.074Z,97870.48
2023-10-21T19:08:12.621Z,97872.40
2023-10-21T19:10:47.699Z,97872.02
2023-10-21T19:13:19.556Z,97870.92
2023-10-21T19:15:53.334Z,97874.52
2023-10-21T19:18:24.888Z,97879.23
2023-10-21T19:20:56.610Z,97875.02
2023-10-21T19:23:27.292Z,97876.13
2023-10-21T19:26:03.236Z,97873.04
2023-10-21T19:28:41.136Z,97876.00
2023-10-21T19:31:20.277Z,97884.92
2023-10-21T19:33:53.783Z,97887.47
2023-10-21T19:36:26.635Z,97886.98
2023-10-21T19:39:04.225Z,97887.62
2023-10-21T19:41:45.730Z,97889.92
2023-10-21T19:44:26.753Z,97898.48
2023-10-21T19:47:05.207Z,97907.39
2023-10-21T19:49:38.741Z,97919.06
2023-10-21T19:52:09.693Z,97925.82
2023-10-21T19:54:44.734Z,97934.56
2023-10-21T19:57:18.736Z,97933.92
2023-10-21T19:59:49.097Z,97937.11
2023-10-21T20:02:20.105Z,97941.63
2023-10-21T20:04:51.808Z,97945.45
2023-10-21T20:07:26.224Z,97944.73
2023-10-21T20:10:02.697Z,97952.29
2023-10-21T20:12:40.812Z,97954.50
2023-10-21T20:15:13.104Z,97961.34
2023-10-21T20:17:44.780Z,97961.44
2023-10-21T20:20:22.873Z,97963.66
2023-10-21T20:23:01.306Z,97970.73
2023-10-21T20:25:38.077Z,97970.65
2023-10-21T20:28:16.711Z,97970.18
2023-10-21T20:31:02.170Z,97970.81
2023-10-21T20:33:41.568Z,97980.60
2023-10-21T20:36:12.239Z,97981.15
2023-10-21T20:38:45.222Z,97979.95
2023-10-21T20:41:19.933Z,97978.84
2023-10-21T20:43:52.959Z,97976.04
2023-10-21T20:46:25.476Z,97966.75
2023-10-21T20:49:00.800Z,97963.17
2023-10-21T20:51:31.527Z,97973.04
2023-10-21T20:54:04.966Z,97972.86
2023-10-21T20:56:39.131Z,97978.83
2023-10-21T20:59:11.443Z,97987.17
2023-10-21T21:01:44.486Z,97989.47
2023-10-21T21:04:19.803Z,97995.77
2023-10-21T21:06:52.145Z,98003.23
2023-10-21T21:09:26.295Z,98002.35
2023-10-21T21:11:58.612Z,98006.48
2023-10-21T21:14:31.595Z,98004.89
2023-10-21T21:17:06.408Z,98011.09
2023-10-21T21:19:38.413Z,98015.61
2023-10-21T21:22:09.254Z,98019.12
2023-10-21T21:24:43.929Z,98022.94
2023-10-21T21:27:19.013Z,98018.72
2023-10-21T21:29:52.411Z,98024.91
2023-10-21T21:32:29.500Z,98025.30
2023-10-21T21:35:04.917Z,98030.23
2023-10-21T21:37:36.721Z,98028.56
2023-10-21T21:40:13.345Z,98033.41
2023-10-21T21:42:48.182Z,98030.95
2023-10-21T21:45:20.808Z,98033.11
2023-10-21T21:47:53.877Z,98030.63
2023-10-21T21:50:25.162Z,98034.70
2023-10-21T21:52:57.669Z,98039.55
2023-10-21T21:55:34.498Z,98033.02
2023-10-21T21:58:07.757Z,98032.55
2023-10-21T22:01:00.191Z,98038.70
2023-10-21T22:03:35.549Z,98037.02
2023-10-21T22:06:09.818Z,98036.55
2023-10-21T22:08:45.320Z,98036.71
2023-10-21T22:11:21.797Z,98036.30
2023-10-21T22:13:55.378Z,98042.57
2023-10-21T22:16:26.513Z,98045.04
2023-10-21T22:19:02.580Z,98043.21
2023-10-21T22:21:40.128Z,98048.94
2023-10-21T22:24:16.582Z,98049.65
2023-10-21T22:26:59.165Z,98054.02
2023-10-21T22:29:38.148Z,98057.52
2023-10-21T22:32:10.380Z,98054.02
2023-10-21T22:34:41.464Z,98058.64
2023-10-21T22:37:15.583Z,98057.85
2023-10-21T22:39:49.177Z,98059.20
2023-10-21T22:42:20.082Z,98059.74
2023-10-21T22:44:52.757Z,98063.64
2023-10-21T22:47:25.364Z,98073.51
2023-10-21T22:49:56.918Z,98071.59
2023-10-21T22:52:27.351Z,98071.73
2023-10-21T22:54:58.506Z,98072.70
2023-10-21T22:57:32.980Z,98073.02
2023-10-21T23:00:06.399Z,98074.37
2023-10-21T23:02:37.467Z,98082.55
2023-10-21T23:05:10.006Z,98081.23
2023-10-21T23:07:41.268Z,98087.42
2023-10-21T23:10:23.443Z,98093.15
2023-10-21T23:12:55.233Z,98088.29
2023-10-21T23:15:28.993Z,98088.21
2023-10-21T23:18:02.127Z,98096.24
2023-10-21T23:20:34.732Z,98101.89
2023-10-21T23:23:06.376Z,98101.95
2023-10-21T23:25:46.431Z,98105.77
2023-10-21T23:28:19.826Z,98106.71
2023-10-21T23:30:50.619Z,98106.23
2023-10-21T23:33:20.714Z,98104.17
2023-10-21T23:35:51.041Z,98109.58
2023-10-21T23:38:24.247Z,98113.65
2023-10-21T23:40:54.586Z,98118.04
2023-10-21T23:43:24.193Z,98104.59
2023-10-21T23:45:55.275Z,98104.67
2023-10-21T23:48:24.970Z,98106.17
2023-10-21T23:50:55.372Z,98106.81
2023-10-21T23:53:25.352Z,98105.71
2023-10-21T23:55:54.366Z,98110.55
2023-10-21T23:58:24.403Z,98112.38
